Terminal Aerodrome Forecast
Issued by NWS

Home | Current Version | Previous Version | Text Only | Print | Product List | Glossary On
Versions: 1 2 3 4 5 6 7 8 9 10 11 12 13 14
197
FTUS42 KTAE 241120
TAFDHN
TAF
KDHN 241120Z 2412/2512 11010KT P6SM BKN050
      TEMPO 2412/2415 BKN025
     FM241500 13012G18KT P6SM SCT050 BKN250
     FM242200 12009KT P6SM BKN050 OVC250=

USA.gov is the U.S. government's official web portal to all federal, state and local government web resources and services.